createdAt,value
2023-02-25T00:02:03.496Z,98183.42
2023-02-25T00:04:32.883Z,98180.11
2023-02-25T00:07:22.896Z,98174.86
2023-02-25T00:09:54.295Z,98173.53
2023-02-25T00:12:24.286Z,98172.73
2023-02-25T00:14:52.766Z,98172.05
2023-02-25T00:17:20.806Z,98171.69
2023-02-25T00:19:49.101Z,98174.98
2023-02-25T00:22:21.363Z,98175.05
2023-02-25T00:24:54.172Z,98171.65
2023-02-25T00:27:22.553Z,98167.98
2023-02-25T00:29:54.121Z,98162.08
2023-02-25T00:32:22.772Z,98161.66
2023-02-25T00:34:52.020Z,98159.14
2023-02-25T00:37:20.392Z,98157.11
2023-02-25T00:39:49.598Z,98153.02
2023-02-25T00:42:19.211Z,98149.40
2023-02-25T00:44:48.759Z,98147.90
2023-02-25T00:47:18.288Z,98144.38
2023-02-25T00:49:47.831Z,98135.66
2023-02-25T00:52:16.462Z,98140.04
2023-02-25T00:54:50.069Z,98139.58
2023-02-25T00:57:43.540Z,98137.90
2023-02-25T01:01:04.065Z,98137.48
2023-02-25T01:04:04.564Z,98135.52
2023-02-25T01:06:59.637Z,98133.31
2023-02-25T01:09:27.886Z,98131.70
2023-02-25T01:11:58.343Z,98121.56
2023-02-25T01:14:49.530Z,98118.27
2023-02-25T01:17:35.402Z,98116.60
2023-02-25T01:20:31.410Z,98117.13
2023-02-25T01:23:10.755Z,98113.15
2023-02-25T01:26:17.349Z,98109.00
2023-02-25T01:29:19.069Z,98107.31
2023-02-25T01:31:54.059Z,98101.98
2023-02-25T01:34:24.968Z,98099.02
2023-02-25T01:36:53.597Z,98089.71
2023-02-25T01:39:22.631Z,98089.35
2023-02-25T01:41:53.549Z,98091.66
2023-02-25T01:44:22.128Z,98083.68
2023-02-25T01:46:54.021Z,98082.45
2023-02-25T01:49:28.993Z,98082.04
2023-02-25T01:52:07.856Z,98072.74
2023-02-25T01:54:37.606Z,98079.28
2023-02-25T01:57:10.041Z,98081.20
2023-02-25T01:59:39.238Z,98075.36
2023-02-25T02:02:11.504Z,98065.76
2023-02-25T02:04:40.761Z,98057.04
2023-02-25T02:07:12.130Z,98053.00
2023-02-25T02:09:57.265Z,98056.21
2023-02-25T02:12:27.415Z,98055.39
2023-02-25T02:14:55.941Z,98050.39
2023-02-25T02:17:30.319Z,98053.09
2023-02-25T02:20:13.269Z,98060.80
2023-02-25T02:23:04.000Z,98052.79
2023-02-25T02:26:03.816Z,98050.66
2023-02-25T02:28:34.043Z,98037.64
2023-02-25T02:31:28.468Z,98030.27
2023-02-25T02:34:19.171Z,98027.34
2023-02-25T02:37:07.558Z,98026.36
2023-02-25T02:40:15.549Z,98025.98
2023-02-25T02:43:02.928Z,98020.98
2023-02-25T02:45:40.490Z,98021.63
2023-02-25T02:48:35.474Z,98019.25
2023-02-25T02:51:07.816Z,98019.16
2023-02-25T02:53:49.400Z,98019.09
2023-02-25T02:56:18.464Z,98015.65
2023-02-25T02:58:48.556Z,98014.55
2023-02-25T03:01:31.682Z,98010.84
2023-02-25T03:04:04.568Z,98006.97
2023-02-25T03:06:48.336Z,98009.41
2023-02-25T03:09:38.304Z,98012.63
2023-02-25T03:12:10.531Z,98008.39
2023-02-25T03:14:39.415Z,98001.77
2023-02-25T03:17:10.579Z,97999.13
2023-02-25T03:19:41.774Z,98000.94
2023-02-25T03:22:14.981Z,98001.14
2023-02-25T03:25:12.175Z,97996.77
2023-02-25T03:27:48.354Z,97990.50
2023-02-25T03:30:31.480Z,97995.01
2023-02-25T03:33:09.553Z,97990.98
2023-02-25T03:35:42.367Z,97984.05
2023-02-25T03:38:12.912Z,97981.06
2023-02-25T03:42:29.379Z,97980.13
2023-02-25T03:44:59.635Z,97985.66
2023-02-25T03:47:29.406Z,97983.48
2023-02-25T03:50:17.538Z,97980.69
2023-02-25T03:53:06.493Z,97975.48
2023-02-25T03:56:09.587Z,97972.48
2023-02-25T03:58:41.076Z,97971.23
2023-02-25T04:01:17.116Z,97970.40
2023-02-25T04:03:46.110Z,97965.35
2023-02-25T04:06:22.124Z,97956.61
2023-02-25T04:08:52.225Z,97943.64
2023-02-25T04:11:20.770Z,97945.63
2023-02-25T04:13:49.965Z,97950.36
2023-02-25T04:16:22.119Z,97958.53
2023-02-25T04:18:59.484Z,97949.70
2023-02-25T04:21:33.009Z,97937.41
2023-02-25T04:24:01.967Z,97931.39
2023-02-25T04:26:36.340Z,97933.22
2023-02-25T04:29:08.635Z,97930.66
2023-02-25T04:31:43.046Z,97929.47
2023-02-25T04:34:13.818Z,97926.96
2023-02-25T04:36:46.222Z,97904.70
2023-02-25T04:39:18.215Z,97904.05
2023-02-25T04:41:49.303Z,97906.96
2023-02-25T04:44:18.009Z,97905.42
2023-02-25T04:46:52.182Z,97916.45
2023-02-25T04:49:22.309Z,97909.25
2023-02-25T04:51:51.681Z,97913.09
2023-02-25T04:54:20.400Z,97918.32
2023-02-25T04:56:48.794Z,97919.62
2023-02-25T04:59:18.572Z,97916.98
2023-02-25T05:01:49.552Z,97916.77
2023-02-25T05:04:18.128Z,97917.86
2023-02-25T05:06:49.227Z,97918.89
2023-02-25T05:09:17.540Z,97924.59
2023-02-25T05:11:54.495Z,97924.16
2023-02-25T05:15:09.287Z,97928.91
2023-02-25T05:17:55.469Z,97928.36
2023-02-25T05:20:43.001Z,97932.02
2023-02-25T05:23:37.327Z,97936.11
2023-02-25T05:26:33.551Z,97948.19
2023-02-25T05:29:35.883Z,97936.96
2023-02-25T05:33:00.925Z,97930.38
2023-02-25T05:36:25.923Z,97924.86
2023-02-25T05:39:02.645Z,97917.55
2023-02-25T05:42:02.009Z,97915.41
2023-02-25T05:44:57.678Z,97908.65
2023-02-25T05:47:57.695Z,97907.59
2023-02-25T05:51:02.680Z,97906.92
2023-02-25T05:54:43.790Z,97901.25
2023-02-25T05:58:31.778Z,97895.13
2023-02-25T06:01:42.938Z,97889.81
2023-02-25T06:04:40.933Z,97887.96
2023-02-25T06:08:13.015Z,97880.55
2023-02-25T06:11:17.946Z,97872.34
2023-02-25T06:14:04.635Z,97875.52
2023-02-25T06:16:43.290Z,97866.42
2023-02-25T06:19:26.431Z,97866.45
2023-02-25T06:22:01.899Z,97859.46
2023-02-25T06:25:20.785Z,97862.96
2023-02-25T06:28:00.468Z,97864.41
2023-02-25T06:31:09.793Z,97864.35
2023-02-25T06:34:20.097Z,97868.33
2023-02-25T06:37:36.524Z,97865.48
2023-02-25T06:40:12.489Z,97866.23
2023-02-25T06:43:08.216Z,97854.98
2023-02-25T06:46:06.680Z,97846.80
2023-02-25T06:49:44.247Z,97839.77
2023-02-25T06:52:31.317Z,97837.52
2023-02-25T06:55:44.203Z,97829.13
2023-02-25T06:58:14.750Z,97827.02
2023-02-25T07:00:49.119Z,97818.46
2023-02-25T07:04:06.636Z,97821.64
2023-02-25T07:07:21.461Z,97815.00
2023-02-25T07:10:12.329Z,97809.39
2023-02-25T07:13:17.668Z,97806.79
2023-02-25T07:16:11.587Z,97805.98
2023-02-25T07:19:02.194Z,97806.39
2023-02-25T07:21:33.743Z,97805.46
2023-02-25T07:24:22.163Z,97798.84
2023-02-25T07:27:05.104Z,97802.34
2023-02-25T07:30:00.917Z,97798.05
2023-02-25T07:33:25.740Z,97792.78
2023-02-25T07:36:33.560Z,97796.73
2023-02-25T07:39:23.479Z,97787.35
2023-02-25T07:41:57.528Z,97783.33
2023-02-25T07:45:04.776Z,97782.42
2023-02-25T07:48:18.903Z,97779.77
2023-02-25T07:51:28.947Z,97771.15
2023-02-25T07:54:08.246Z,97765.84
2023-02-25T07:56:51.479Z,97762.80
2023-02-25T07:59:35.987Z,97762.41
2023-02-25T08:02:21.621Z,97759.88
2023-02-25T08:05:02.061Z,97759.77
2023-02-25T08:07:58.942Z,97759.50
2023-02-25T08:10:53.145Z,97757.92
2023-02-25T08:13:25.073Z,97749.83
2023-02-25T08:16:13.749Z,97757.18
2023-02-25T08:18:52.915Z,97747.11
2023-02-25T08:21:30.881Z,97741.75
2023-02-25T08:24:01.672Z,97735.20
2023-02-25T08:26:42.136Z,97733.59
2023-02-25T08:29:25.561Z,97733.79
2023-02-25T08:32:17.145Z,97723.69
2023-02-25T08:34:52.919Z,97723.98
2023-02-25T08:37:39.486Z,97721.73
2023-02-25T08:40:19.856Z,97714.11
2023-02-25T08:43:14.064Z,97719.86
2023-02-25T08:46:33.505Z,97708.84
2023-02-25T08:49:11.117Z,97701.95
2023-02-25T08:52:09.897Z,97692.71
2023-02-25T08:54:42.011Z,97688.53
2023-02-25T08:57:10.604Z,97684.78
2023-02-25T08:59:40.620Z,97680.27
2023-02-25T09:02:15.165Z,97680.73
2023-02-25T09:04:49.714Z,97677.73
2023-02-25T09:07:18.127Z,97670.70
2023-02-25T09:09:47.521Z,97666.52
2023-02-25T09:12:53.265Z,97656.73
2023-02-25T09:15:23.071Z,97655.36
2023-02-25T09:18:01.513Z,97650.45
2023-02-25T09:21:04.726Z,97645.91
2023-02-25T09:23:43.635Z,97634.90
2023-02-25T09:26:22.709Z,97627.33
2023-02-25T09:29:00.407Z,97617.25
2023-02-25T09:31:36.879Z,97608.30
2023-02-25T09:34:36.024Z,97597.33
2023-02-25T09:37:14.769Z,97591.15
2023-02-25T09:39:55.745Z,97588.61
2023-02-25T09:43:06.293Z,97587.88
2023-02-25T09:45:54.127Z,97583.95
2023-02-25T09:49:12.450Z,97581.63
2023-02-25T09:52:14.519Z,97565.52
2023-02-25T09:55:18.026Z,97562.11
2023-02-25T09:58:04.942Z,97552.95
2023-02-25T10:01:38.811Z,97548.54
2023-02-25T10:04:34.103Z,97545.04
2023-02-25T10:07:14.753Z,97543.55
2023-02-25T10:09:52.782Z,97539.13
2023-02-25T10:12:25.012Z,97530.30
2023-02-25T10:15:12.594Z,97523.16
2023-02-25T10:17:52.980Z,97517.08
2023-02-25T10:20:52.284Z,97506.10
2023-02-25T10:23:43.592Z,97498.58
2023-02-25T10:26:19.252Z,97484.75
2023-02-25T10:29:08.297Z,97471.86
2023-02-25T10:31:39.289Z,97466.02
2023-02-25T10:34:28.573Z,97458.67
2023-02-25T10:36:58.748Z,97444.66
2023-02-25T10:39:27.902Z,97434.73
2023-02-25T10:41:58.748Z,97427.66
2023-02-25T10:44:26.956Z,97425.27
2023-02-25T10:47:03.978Z,97426.48
2023-02-25T10:49:38.248Z,97426.63
2023-02-25T10:52:07.027Z,97422.28
2023-02-25T10:54:48.185Z,97413.60
2023-02-25T10:57:28.179Z,97419.32
2023-02-25T11:00:00.861Z,97419.86
2023-02-25T11:02:31.642Z,97413.58
2023-02-25T11:04:59.962Z,97407.06
2023-02-25T11:07:38.948Z,97404.67
2023-02-25T11:10:09.297Z,97399.56
2023-02-25T11:12:43.688Z,97398.72
2023-02-25T11:15:44.899Z,97395.48
2023-02-25T11:18:23.643Z,97391.40
2023-02-25T11:20:52.806Z,97385.74
2023-02-25T11:23:26.586Z,97387.91
2023-02-25T11:25:56.543Z,97379.73
2023-02-25T11:28:41.944Z,97379.14
2023-02-25T11:31:19.129Z,97373.20
2023-02-25T11:34:00.340Z,97376.71
2023-02-25T11:36:33.416Z,97366.11
2023-02-25T11:39:20.768Z,97360.73
2023-02-25T11:41:51.567Z,97362.89
2023-02-25T11:44:45.821Z,97359.50
2023-02-25T11:47:32.639Z,97354.20
2023-02-25T11:50:19.179Z,97344.88
2023-02-25T11:53:08.228Z,97346.02
2023-02-25T11:55:59.164Z,97341.90
2023-02-25T11:58:51.347Z,97343.02
2023-02-25T12:01:48.123Z,97337.38
2023-02-25T12:04:28.485Z,97339.36
2023-02-25T12:06:59.976Z,97335.23
2023-02-25T12:09:54.673Z,97333.14
2023-02-25T12:12:29.034Z,97327.45
2023-02-25T12:14:57.310Z,97326.52
2023-02-25T12:17:39.000Z,97327.64
2023-02-25T12:20:45.807Z,97325.89
2023-02-25T12:23:38.779Z,97322.02
2023-02-25T12:26:34.990Z,97322.77
2023-02-25T12:29:03.554Z,97325.34
2023-02-25T12:32:31.266Z,97322.75
2023-02-25T12:35:25.799Z,97319.75
2023-02-25T12:38:09.134Z,97313.21
2023-02-25T12:41:11.856Z,97313.21
2023-02-25T12:43:56.032Z,97310.66
2023-02-25T12:46:49.468Z,97309.86
2023-02-25T12:49:31.196Z,97306.63
2023-02-25T12:52:21.163Z,97304.08
2023-02-25T12:54:59.063Z,97296.49
2023-02-25T12:57:31.128Z,97293.87
2023-02-25T13:00:18.045Z,97291.23
2023-02-25T13:03:02.328Z,97292.08
2023-02-25T13:06:07.788Z,97291.54
2023-02-25T13:08:56.410Z,97288.70
2023-02-25T13:12:12.903Z,97286.74
2023-02-25T13:15:06.470Z,97277.45
2023-02-25T13:17:53.593Z,97275.48
2023-02-25T13:20:46.327Z,97268.88
2023-02-25T13:23:22.233Z,97262.70
2023-02-25T13:26:12.994Z,97258.52
2023-02-25T13:28:51.833Z,97258.84
2023-02-25T13:31:52.506Z,97250.64
2023-02-25T13:34:43.103Z,97244.02
2023-02-25T13:37:41.197Z,97233.85
2023-02-25T13:40:57.323Z,97226.71
2023-02-25T13:43:57.789Z,97222.73
2023-02-25T13:46:32.714Z,97217.83
2023-02-25T13:49:23.697Z,97210.98
2023-02-25T13:52:18.206Z,97214.88
2023-02-25T13:54:46.365Z,97209.99
2023-02-25T13:58:05.842Z,97196.56
2023-02-25T14:00:46.196Z,97189.55
2023-02-25T14:03:14.600Z,97190.38
2023-02-25T14:06:27.680Z,97182.79
2023-02-25T14:09:26.106Z,97176.59
2023-02-25T14:12:13.372Z,97183.23
2023-02-25T14:14:46.347Z,97176.90
2023-02-25T14:17:39.595Z,97176.96
2023-02-25T14:20:34.764Z,97169.68
2023-02-25T14:23:25.159Z,97171.86
2023-02-25T14:26:07.000Z,97170.02
2023-02-25T14:29:00.446Z,97166.66
2023-02-25T14:31:38.451Z,97159.83
2023-02-25T14:34:22.056Z,97153.48
2023-02-25T14:37:08.631Z,97143.52
2023-02-25T14:39:55.221Z,97138.26
2023-02-25T14:42:47.745Z,97130.40
2023-02-25T14:45:20.457Z,97127.03
2023-02-25T14:48:25.817Z,97117.84
2023-02-25T14:51:01.601Z,97107.91
2023-02-25T14:54:00.925Z,97101.07
2023-02-25T14:56:37.367Z,97097.95
2023-02-25T14:59:32.944Z,97099.48
2023-02-25T15:02:23.110Z,97098.03
2023-02-25T15:05:25.338Z,97095.83
2023-02-25T15:08:16.700Z,97088.71
2023-02-25T15:10:53.925Z,97087.00
2023-02-25T15:13:29.544Z,97084.73
2023-02-25T15:16:08.341Z,97083.79
2023-02-25T15:19:06.667Z,97078.94
2023-02-25T15:21:44.968Z,97077.46
2023-02-25T15:24:39.150Z,97070.08
2023-02-25T15:27:35.690Z,97069.86
2023-02-25T15:30:05.567Z,97071.39
2023-02-25T15:33:11.409Z,97095.65
2023-02-25T15:35:40.232Z,97135.42
2023-02-25T15:38:39.306Z,97235.66
2023-02-25T15:41:29.457Z,97247.31
2023-02-25T15:43:58.340Z,97244.84
2023-02-25T15:46:35.747Z,97247.61
2023-02-25T15:49:35.820Z,97262.39
2023-02-25T15:52:05.005Z,97274.43
2023-02-25T15:54:33.613Z,97289.41
2023-02-25T15:58:55.314Z,97294.23
2023-02-25T16:01:24.907Z,97310.05
2023-02-25T16:03:53.642Z,97332.45
2023-02-25T16:06:41.228Z,97337.80
2023-02-25T16:09:12.526Z,97325.84
2023-02-25T16:11:45.969Z,97321.14
2023-02-25T16:14:18.104Z,97323.77
2023-02-25T16:17:15.289Z,97327.14
2023-02-25T16:19:55.986Z,97327.46
2023-02-25T16:22:26.358Z,97332.59
2023-02-25T16:24:55.738Z,97335.75
2023-02-25T16:27:39.310Z,97337.55
2023-02-25T16:30:18.248Z,97344.56
2023-02-25T16:33:30.748Z,97349.79
2023-02-25T16:36:07.528Z,97357.13
2023-02-25T16:38:38.209Z,97360.79
2023-02-25T16:41:06.519Z,97362.05
2023-02-25T16:43:37.341Z,97369.08
2023-02-25T16:46:06.340Z,97391.73
2023-02-25T16:48:37.357Z,97402.03
2023-02-25T16:51:16.956Z,97399.70
2023-02-25T16:53:45.720Z,97417.40
2023-02-25T16:56:21.089Z,97451.65
2023-02-25T16:59:09.878Z,97472.75
2023-02-25T17:01:39.288Z,97491.40
2023-02-25T17:04:21.071Z,97505.77
2023-02-25T17:07:10.808Z,97508.95
2023-02-25T17:09:56.124Z,97495.83
2023-02-25T17:12:29.982Z,97502.38
2023-02-25T17:15:00.833Z,97495.27
2023-02-25T17:17:33.292Z,97492.77
2023-02-25T17:20:05.319Z,97499.63
2023-02-25T17:22:37.036Z,97488.64
2023-02-25T17:25:14.598Z,97505.85
2023-02-25T17:27:43.079Z,97506.16
2023-02-25T17:30:37.506Z,97525.78
2023-02-25T17:33:06.895Z,97526.64
2023-02-25T17:35:40.195Z,97520.13
2023-02-25T17:38:12.943Z,97521.01
2023-02-25T17:40:41.149Z,97513.39
2023-02-25T17:43:19.582Z,97509.67
2023-02-25T17:45:55.922Z,97505.93
2023-02-25T17:48:27.157Z,97521.11
2023-02-25T17:50:59.661Z,97510.52
2023-02-25T17:53:47.613Z,97516.86
2023-02-25T17:56:30.083Z,97524.94
2023-02-25T17:59:14.287Z,97529.13
2023-02-25T18:01:57.932Z,97529.46
2023-02-25T18:04:36.490Z,97541.14
2023-02-25T18:07:24.240Z,97565.69
2023-02-25T18:09:53.799Z,97574.30
2023-02-25T18:12:29.804Z,97572.31
2023-02-25T18:15:00.767Z,97564.92
2023-02-25T18:17:34.533Z,97561.31
2023-02-25T18:20:05.222Z,97578.20
2023-02-25T18:22:37.001Z,97587.97
2023-02-25T18:25:28.160Z,97597.27
2023-02-25T18:27:56.647Z,97611.80
2023-02-25T18:30:26.158Z,97619.17
2023-02-25T18:32:54.868Z,97621.98
2023-02-25T18:35:23.637Z,97619.50
2023-02-25T18:37:55.961Z,97613.77
2023-02-25T18:40:29.867Z,97618.96
2023-02-25T18:42:59.001Z,97624.50
2023-02-25T18:45:28.131Z,97623.85
2023-02-25T18:47:57.033Z,97628.00
2023-02-25T18:50:25.762Z,97622.38
2023-02-25T18:52:54.064Z,97617.16
2023-02-25T18:55:26.960Z,97617.76
2023-02-25T18:57:55.331Z,97618.20
2023-02-25T19:00:24.577Z,97624.71
2023-02-25T19:02:54.816Z,97629.17
2023-02-25T19:05:23.851Z,97631.36
2023-02-25T19:07:59.711Z,97640.30
2023-02-25T19:10:30.913Z,97650.23
2023-02-25T19:13:05.828Z,97654.36
2023-02-25T19:15:34.125Z,97669.52
2023-02-25T19:18:02.566Z,97676.44
2023-02-25T19:20:30.804Z,97682.27
2023-02-25T19:22:59.184Z,97691.52
2023-02-25T19:25:30.176Z,97696.39
2023-02-25T19:28:00.314Z,97701.52
2023-02-25T19:30:34.197Z,97702.92
2023-02-25T19:33:04.911Z,97703.58
2023-02-25T19:35:37.051Z,97697.73
2023-02-25T19:38:05.487Z,97698.35
2023-02-25T19:40:34.248Z,97701.75
2023-02-25T19:43:04.992Z,97707.73
2023-02-25T19:45:33.707Z,97712.98
2023-02-25T19:48:02.132Z,97719.95
2023-02-25T19:50:34.702Z,97726.73
2023-02-25T19:53:06.784Z,97737.88
2023-02-25T19:55:35.401Z,97744.45
2023-02-25T19:58:03.724Z,97743.88
2023-02-25T20:00:33.832Z,97747.81
2023-02-25T20:03:02.116Z,97751.01
2023-02-25T20:05:30.392Z,97761.30
2023-02-25T20:07:58.753Z,97757.11
2023-02-25T20:10:26.996Z,97765.85
2023-02-25T20:12:57.632Z,97762.17
2023-02-25T20:15:26.181Z,97763.58
2023-02-25T20:17:55.795Z,97765.90
2023-02-25T20:20:24.483Z,97770.52
2023-02-25T20:22:52.945Z,97767.73
2023-02-25T20:25:24.158Z,97769.02
2023-02-25T20:27:53.792Z,97769.94
2023-02-25T20:30:23.107Z,97769.63
2023-02-25T20:32:51.239Z,97772.90
2023-02-25T20:35:21.266Z,97780.92
2023-02-25T20:38:13.750Z,97783.44
2023-02-25T20:40:43.020Z,97784.36
2023-02-25T20:43:11.451Z,97787.11
2023-02-25T20:45:39.942Z,97789.36
2023-02-25T20:48:16.954Z,97788.60
2023-02-25T20:50:45.407Z,97794.73
2023-02-25T20:53:13.697Z,97803.56
2023-02-25T20:55:45.528Z,97805.59
2023-02-25T20:58:13.823Z,97807.14
2023-02-25T21:00:42.151Z,97807.14
2023-02-25T21:03:11.245Z,97805.86
2023-02-25T21:05:40.404Z,97809.55
2023-02-25T21:08:08.568Z,97815.84
2023-02-25T21:10:37.652Z,97815.79
2023-02-25T21:13:06.170Z,97820.56
2023-02-25T21:15:36.547Z,97830.98
2023-02-25T21:18:05.790Z,97835.91
2023-02-25T21:20:33.891Z,97847.42
2023-02-25T21:23:02.027Z,97855.63
2023-02-25T21:25:31.379Z,97867.95
2023-02-25T21:27:59.614Z,97870.74
2023-02-25T21:30:27.913Z,97877.52
2023-02-25T21:32:56.257Z,97875.27
2023-02-25T21:35:25.847Z,97879.34
2023-02-25T21:37:54.139Z,97881.05
2023-02-25T21:40:22.377Z,97886.32
2023-02-25T21:42:51.679Z,97889.80
2023-02-25T21:45:19.764Z,97892.13
2023-02-25T21:47:48.027Z,97893.58
2023-02-25T21:50:19.375Z,97895.13
2023-02-25T21:52:47.681Z,97895.23
2023-02-25T21:55:16.153Z,97888.13
2023-02-25T21:57:44.580Z,97888.39
2023-02-25T22:00:13.226Z,97893.61
2023-02-25T22:02:41.938Z,97905.73
2023-02-25T22:05:10.332Z,97916.15
2023-02-25T22:07:42.393Z,97921.70
2023-02-25T22:10:11.596Z,97919.75
2023-02-25T22:12:39.849Z,97921.25
2023-02-25T22:15:08.841Z,97929.66
2023-02-25T22:17:38.670Z,97926.73
2023-02-25T22:20:07.475Z,97922.63
2023-02-25T22:22:37.445Z,97925.63
2023-02-25T22:25:06.210Z,97928.05
2023-02-25T22:27:34.673Z,97921.63
2023-02-25T22:30:04.486Z,97925.65
2023-02-25T22:32:37.432Z,97921.79
2023-02-25T22:35:07.987Z,97923.35
2023-02-25T22:37:36.228Z,97921.23
2023-02-25T22:40:04.809Z,97927.34
2023-02-25T22:42:33.357Z,97925.94
2023-02-25T22:45:01.467Z,97920.70
2023-02-25T22:47:30.039Z,97927.96
2023-02-25T22:49:58.749Z,97934.14
2023-02-25T22:52:27.283Z,97932.98
2023-02-25T22:54:55.396Z,97933.77
2023-02-25T22:57:23.968Z,97927.23
2023-02-25T22:59:52.246Z,97925.14
2023-02-25T23:02:20.557Z,97930.26
2023-02-25T23:04:52.284Z,97938.59
2023-02-25T23:07:20.920Z,97950.59
2023-02-25T23:09:49.859Z,97950.77
2023-02-25T23:12:18.351Z,97954.95
2023-02-25T23:14:47.662Z,97959.73
2023-02-25T23:17:15.764Z,97958.09
2023-02-25T23:19:47.123Z,97962.54
2023-02-25T23:22:22.544Z,97973.88
2023-02-25T23:24:52.314Z,97978.52
2023-02-25T23:27:21.516Z,97975.42
2023-02-25T23:29:52.128Z,97975.61
2023-02-25T23:32:20.532Z,97974.07
2023-02-25T23:34:49.653Z,97973.73
2023-02-25T23:37:17.976Z,97964.91
2023-02-25T23:39:46.125Z,97962.70
2023-02-25T23:42:14.508Z,97965.65
2023-02-25T23:44:42.705Z,97976.05
2023-02-25T23:47:10.885Z,97983.59
2023-02-25T23:49:40.502Z,97977.14
2023-02-25T23:52:08.804Z,97984.45
2023-02-25T23:54:37.193Z,97982.84
2023-02-25T23:57:10.588Z,97988.93
2023-02-25T23:59:40.288Z,97985.95
